createdAt,value
2018-07-01T00:03:35.372Z,16.70
2018-07-01T00:07:39.249Z,16.70
2018-07-01T00:11:43.168Z,16.60
2018-07-01T00:15:47.072Z,16.50
2018-07-01T00:19:50.979Z,16.50
2018-07-01T00:23:54.844Z,16.40
2018-07-01T00:27:58.713Z,16.40
2018-07-01T00:32:02.656Z,16.30
2018-07-01T00:36:06.683Z,16.20
2018-07-01T00:40:10.558Z,16.20
2018-07-01T00:44:14.440Z,16.10
2018-07-01T00:48:18.276Z,16.00
2018-07-01T00:52:22.128Z,16.00
2018-07-01T00:56:25.960Z,15.90
2018-07-01T01:00:32.683Z,15.80
2018-07-01T01:04:36.515Z,15.80
2018-07-01T01:08:40.411Z,15.70
2018-07-01T01:12:44.304Z,15.60
2018-07-01T01:16:48.180Z,15.50
2018-07-01T01:20:52.080Z,15.50
2018-07-01T01:24:55.968Z,15.50
2018-07-01T01:28:59.932Z,15.60
2018-07-01T01:33:03.836Z,15.40
2018-07-01T01:37:07.704Z,15.40
2018-07-01T01:41:14.945Z,15.40
2018-07-01T01:47:27.633Z,15.30
2018-07-01T01:51:39.949Z,15.30
2018-07-01T01:55:49.172Z,15.20
2018-07-01T01:59:57.760Z,15.10
2018-07-01T02:04:10.263Z,15.10
2018-07-01T02:08:18.340Z,15.10
2018-07-01T02:12:22.196Z,15.00
2018-07-01T02:16:31.169Z,15.00
2018-07-01T02:20:37.254Z,14.90
2018-07-01T02:24:43.824Z,14.90
2018-07-01T02:28:47.685Z,14.90
2018-07-01T02:32:51.573Z,14.90
2018-07-01T02:36:55.448Z,14.80
2018-07-01T02:40:59.337Z,14.80
2018-07-01T02:45:03.228Z,14.70
2018-07-01T02:49:07.092Z,14.70
2018-07-01T02:53:10.949Z,14.70
2018-07-01T02:57:14.796Z,14.70
2018-07-01T03:01:18.644Z,14.60
2018-07-01T03:09:26.017Z,14.60
2018-07-01T03:13:29.863Z,14.50
2018-07-01T03:17:33.860Z,14.50
2018-07-01T03:21:37.718Z,14.50
2018-07-01T03:25:41.567Z,14.50
2018-07-01T03:29:45.420Z,14.50
2018-07-01T03:33:49.272Z,14.40
2018-07-01T03:37:53.333Z,14.40
2018-07-01T03:41:57.173Z,14.40
2018-07-01T03:46:01.040Z,14.40
2018-07-01T03:50:05.016Z,14.40
2018-07-01T03:54:08.836Z,14.40
2018-07-01T03:58:12.679Z,14.40
2018-07-01T04:02:16.549Z,14.40
2018-07-01T04:06:20.416Z,14.40
2018-07-01T04:10:24.255Z,14.40
2018-07-01T04:14:28.116Z,14.40
2018-07-01T04:18:31.960Z,14.50
2018-07-01T04:22:35.936Z,14.50
2018-07-01T04:26:39.785Z,14.60
2018-07-01T04:30:43.627Z,14.60
2018-07-01T04:34:47.480Z,14.60
2018-07-01T04:38:51.446Z,14.70
2018-07-01T04:42:55.296Z,14.80
2018-07-01T04:46:59.260Z,14.90
2018-07-01T04:51:03.095Z,15.00
2018-07-01T04:55:07.041Z,15.20
2018-07-01T04:59:10.860Z,15.30
2018-07-01T05:03:14.720Z,15.60
2018-07-01T05:07:18.598Z,16.00
2018-07-01T05:11:22.480Z,17.20
2018-07-01T05:15:26.377Z,18.90
2018-07-01T05:19:30.244Z,19.40
2018-07-01T05:23:34.107Z,19.20
2018-07-01T05:27:38.028Z,18.80
2018-07-01T05:31:41.848Z,18.80
2018-07-01T05:35:45.790Z,18.50
2018-07-01T05:39:49.649Z,18.20
2018-07-01T05:43:53.540Z,18.10
2018-07-01T05:47:57.437Z,18.10
2018-07-01T05:52:01.328Z,17.90
2018-07-01T05:56:05.196Z,17.90
2018-07-01T06:00:09.124Z,18.00
2018-07-01T06:04:13.000Z,18.00
2018-07-01T06:08:16.904Z,18.10
2018-07-01T06:12:20.789Z,18.20
2018-07-01T06:16:24.708Z,18.40
2018-07-01T06:20:28.828Z,18.60
2018-07-01T06:24:32.715Z,18.80
2018-07-01T06:28:36.575Z,19.10
2018-07-01T06:32:40.446Z,20.80
2018-07-01T06:36:44.316Z,23.60
2018-07-01T06:40:48.187Z,25.70
2018-07-01T06:44:52.044Z,27.20
2018-07-01T06:48:55.964Z,29.10
2018-07-01T06:52:59.832Z,30.00
2018-07-01T06:57:03.696Z,29.80
2018-07-01T07:01:07.545Z,29.60
2018-07-01T07:05:11.405Z,28.80
2018-07-01T07:09:15.319Z,28.20
2018-07-01T07:13:19.271Z,27.40
2018-07-01T07:17:23.155Z,26.10
2018-07-01T07:21:27.057Z,26.10
2018-07-01T07:25:30.959Z,25.50
2018-07-01T07:29:34.821Z,25.40
2018-07-01T07:33:38.688Z,25.10
2018-07-01T07:37:42.604Z,24.80
2018-07-01T07:41:46.512Z,25.00
2018-07-01T07:45:50.367Z,25.00
2018-07-01T07:49:54.352Z,25.10
2018-07-01T07:53:58.223Z,25.40
2018-07-01T07:58:02.084Z,25.10
2018-07-01T08:02:05.988Z,25.20
2018-07-01T08:06:09.871Z,25.70
2018-07-01T08:10:13.744Z,25.30
2018-07-01T08:14:17.724Z,25.30
2018-07-01T08:18:21.622Z,25.10
2018-07-01T08:22:25.512Z,25.00
2018-07-01T08:26:29.335Z,24.80
2018-07-01T08:30:33.204Z,24.50
2018-07-01T08:34:37.069Z,24.20
2018-07-01T08:42:44.526Z,24.00
2018-07-01T08:46:48.409Z,23.90
2018-07-01T08:50:52.279Z,23.80
2018-07-01T08:54:56.144Z,24.00
2018-07-01T08:59:00.010Z,24.10
2018-07-01T09:03:03.943Z,24.00
2018-07-01T09:07:07.892Z,23.90
2018-07-01T09:11:11.776Z,23.90
2018-07-01T09:15:15.688Z,23.80
2018-07-01T09:19:19.836Z,23.80
2018-07-01T09:23:23.776Z,24.00
2018-07-01T09:27:27.600Z,23.90
2018-07-01T09:31:31.680Z,24.10
2018-07-01T09:35:35.592Z,24.00
2018-07-01T09:39:39.519Z,24.20
2018-07-01T09:43:43.401Z,24.30
2018-07-01T09:47:47.305Z,24.60
2018-07-01T09:51:51.200Z,24.50
2018-07-01T09:55:55.060Z,24.40
2018-07-01T09:59:58.974Z,24.40
2018-07-01T10:04:02.926Z,24.60
2018-07-01T10:08:06.801Z,24.60
2018-07-01T10:12:10.708Z,24.60
2018-07-01T10:16:15.460Z,24.60
2018-07-01T10:20:19.448Z,24.70
2018-07-01T10:24:23.300Z,24.80
2018-07-01T10:28:27.249Z,24.80
2018-07-01T10:32:31.167Z,24.80
2018-07-01T10:36:35.096Z,24.80
2018-07-01T10:40:38.986Z,24.90
2018-07-01T10:44:42.860Z,25.20
2018-07-01T10:48:46.739Z,25.40
2018-07-01T10:52:50.676Z,25.30
2018-07-01T10:56:54.546Z,25.10
2018-07-01T11:00:58.452Z,25.10
2018-07-01T11:05:02.376Z,25.20
2018-07-01T11:09:09.017Z,25.10
2018-07-01T11:13:12.880Z,25.10
2018-07-01T11:17:16.832Z,25.30
2018-07-01T11:21:20.684Z,25.30
2018-07-01T11:25:24.589Z,25.30
2018-07-01T11:29:28.621Z,25.30
2018-07-01T11:33:32.492Z,25.40
2018-07-01T11:37:36.360Z,25.50
2018-07-01T11:41:40.416Z,25.60
2018-07-01T11:45:44.399Z,25.60
2018-07-01T11:49:48.252Z,25.50
2018-07-01T11:53:52.137Z,25.40
2018-07-01T11:57:56.040Z,25.50
2018-07-01T12:01:59.942Z,25.60
2018-07-01T12:06:03.804Z,25.60
2018-07-01T12:10:07.708Z,25.60
2018-07-01T12:14:11.581Z,25.70
2018-07-01T12:18:15.451Z,25.70
2018-07-01T12:22:19.325Z,25.60
2018-07-01T12:26:23.305Z,25.70
2018-07-01T12:30:27.162Z,25.50
2018-07-01T12:34:31.048Z,25.50
2018-07-01T12:38:34.932Z,25.60
2018-07-01T12:42:38.812Z,25.70
2018-07-01T12:46:42.794Z,25.60
2018-07-01T12:50:46.767Z,25.50
2018-07-01T12:54:50.816Z,25.70
2018-07-01T12:58:54.831Z,25.80
2018-07-01T13:07:02.288Z,25.80
2018-07-01T13:11:06.345Z,25.70
2018-07-01T13:15:10.196Z,25.70
2018-07-01T13:19:14.073Z,25.90
2018-07-01T13:23:17.945Z,25.80
2018-07-01T13:27:21.824Z,25.60
2018-07-01T13:31:25.704Z,25.50
2018-07-01T13:35:29.607Z,25.50
2018-07-01T13:39:33.588Z,25.40
2018-07-01T13:43:37.449Z,25.40
2018-07-01T13:47:41.396Z,25.40
2018-07-01T13:51:45.259Z,25.50
2018-07-01T13:55:49.140Z,25.30
2018-07-01T13:59:53.028Z,25.30
2018-07-01T14:03:56.885Z,25.50
2018-07-01T14:08:00.882Z,25.40
2018-07-01T14:12:04.771Z,25.50
2018-07-01T14:16:08.612Z,25.20
2018-07-01T14:20:12.483Z,25.10
2018-07-01T14:24:16.340Z,25.20
2018-07-01T14:28:20.256Z,25.10
2018-07-01T14:32:24.112Z,25.20
2018-07-01T14:36:28.013Z,25.20
2018-07-01T14:40:31.923Z,25.20
2018-07-01T14:44:35.918Z,25.00
2018-07-01T14:48:39.748Z,25.00
2018-07-01T14:52:43.642Z,24.90
2018-07-01T14:56:47.516Z,24.80
2018-07-01T15:04:54.951Z,24.80
2018-07-01T15:08:58.912Z,24.80
2018-07-01T15:13:02.804Z,24.80
2018-07-01T15:17:06.700Z,24.90
2018-07-01T15:25:14.094Z,24.80
2018-07-01T15:29:18.001Z,24.70
2018-07-01T15:33:21.887Z,24.70
2018-07-01T15:37:25.759Z,24.70
2018-07-01T15:41:29.720Z,24.60
2018-07-01T15:45:33.569Z,24.60
2018-07-01T15:49:37.436Z,24.60
2018-07-01T15:53:41.328Z,24.60
2018-07-01T15:57:45.195Z,24.60
2018-07-01T16:01:49.092Z,24.60
2018-07-01T16:05:53.044Z,24.60
2018-07-01T16:09:56.956Z,24.60
2018-07-01T16:14:00.824Z,24.60
2018-07-01T16:18:04.928Z,24.50
2018-07-01T16:22:08.808Z,24.50
2018-07-01T16:26:17.964Z,24.50
2018-07-01T16:30:21.844Z,24.40
2018-07-01T16:34:25.720Z,24.40
2018-07-01T16:38:29.576Z,24.30
2018-07-01T16:42:33.460Z,24.30
2018-07-01T16:46:37.356Z,24.20
2018-07-01T16:50:41.229Z,24.20
2018-07-01T16:54:45.121Z,24.20
2018-07-01T16:58:48.988Z,24.10
2018-07-01T17:02:52.849Z,24.10
2018-07-01T17:06:56.736Z,24.10
2018-07-01T17:15:04.245Z,24.00
2018-07-01T17:19:08.108Z,24.00
2018-07-01T17:23:11.988Z,23.90
2018-07-01T17:27:15.952Z,23.90
2018-07-01T17:31:25.401Z,23.90
2018-07-01T17:35:29.318Z,23.80
2018-07-01T17:39:33.192Z,23.80
2018-07-01T17:43:37.080Z,23.80
2018-07-01T17:47:40.935Z,23.80
2018-07-01T17:51:44.808Z,23.80
2018-07-01T17:55:48.669Z,23.70
2018-07-01T17:59:52.543Z,23.70
2018-07-01T18:03:56.411Z,23.60
2018-07-01T18:08:00.282Z,23.50
2018-07-01T18:12:04.295Z,23.50
2018-07-01T18:16:08.404Z,23.40
2018-07-01T18:20:12.272Z,23.40
2018-07-01T18:28:30.186Z,23.20
2018-07-01T18:32:23.594Z,23.20
2018-07-01T18:36:27.529Z,23.20
2018-07-01T18:40:31.392Z,23.10
2018-07-01T18:44:35.285Z,23.00
2018-07-01T18:48:39.168Z,23.00
2018-07-01T18:52:43.040Z,22.90
2018-07-01T18:56:46.925Z,22.80
2018-07-01T19:00:50.810Z,22.70
2018-07-01T19:04:54.823Z,22.70
2018-07-01T19:08:58.745Z,22.60
2018-07-01T19:13:02.632Z,22.60
2018-07-01T19:17:06.708Z,22.50
2018-07-01T19:21:10.588Z,22.40
2018-07-01T19:25:14.499Z,22.30
2018-07-01T19:29:18.338Z,22.20
2018-07-01T19:33:22.264Z,22.00
2018-07-01T19:37:26.136Z,21.90
2018-07-01T19:41:30.021Z,21.90
2018-07-01T19:45:33.919Z,21.80
2018-07-01T19:49:37.776Z,21.70
2018-07-01T19:53:41.654Z,21.50
2018-07-01T19:57:45.544Z,21.40
2018-07-01T20:01:50.240Z,21.20
2018-07-01T20:05:54.141Z,21.10
2018-07-01T20:09:58.004Z,21.00
2018-07-01T20:14:01.886Z,20.80
2018-07-01T20:18:05.823Z,20.70
2018-07-01T20:22:09.958Z,20.50
2018-07-01T20:26:13.920Z,20.40
2018-07-01T20:30:17.793Z,20.20
2018-07-01T20:34:21.664Z,20.10
2018-07-01T20:38:25.540Z,19.90
2018-07-01T20:42:29.419Z,19.80
2018-07-01T20:46:33.289Z,19.70
2018-07-01T20:50:37.216Z,19.50
2018-07-01T20:54:41.075Z,19.50
2018-07-01T20:58:44.945Z,19.30
2018-07-01T21:02:48.815Z,19.30
2018-07-01T21:06:52.708Z,19.10
2018-07-01T21:10:56.584Z,19.00
2018-07-01T21:15:00.488Z,18.90
2018-07-01T21:19:04.887Z,18.80
2018-07-01T21:23:08.875Z,18.70
2018-07-01T21:27:12.718Z,18.60
2018-07-01T21:31:16.624Z,18.50
2018-07-01T21:35:20.452Z,18.40
2018-07-01T21:39:24.339Z,18.30
2018-07-01T21:43:28.205Z,18.20
2018-07-01T21:47:32.169Z,18.10
2018-07-01T21:51:36.083Z,18.00
2018-07-01T21:55:39.948Z,17.90
2018-07-01T22:07:50.849Z,17.70
2018-07-01T22:12:07.025Z,17.60
2018-07-01T22:16:10.949Z,17.60
2018-07-01T22:20:14.909Z,17.50
2018-07-01T22:24:18.759Z,17.50
2018-07-01T22:28:22.645Z,17.40
2018-07-01T22:32:26.508Z,17.30
2018-07-01T22:36:30.463Z,17.30
2018-07-01T22:40:34.357Z,17.20
2018-07-01T22:44:38.248Z,17.20
2018-07-01T22:48:42.115Z,17.10
2018-07-01T22:52:45.983Z,17.10
2018-07-01T22:56:49.852Z,17.00
2018-07-01T23:00:53.720Z,17.00
2018-07-01T23:04:57.349Z,16.90
2018-07-01T23:09:01.211Z,16.80
2018-07-01T23:13:05.096Z,16.80
2018-07-01T23:17:09.032Z,16.70
2018-07-01T23:21:13.260Z,16.60
2018-07-01T23:25:17.125Z,16.60
2018-07-01T23:29:20.976Z,16.50
2018-07-01T23:33:24.835Z,16.40
2018-07-01T23:37:28.771Z,16.40
2018-07-01T23:41:32.636Z,16.30
2018-07-01T23:45:36.495Z,16.30
2018-07-01T23:49:40.455Z,16.20
2018-07-01T23:53:44.316Z,16.20
2018-07-01T23:57:48.186Z,16.10
